createdAt,value
2018-11-10T00:00:03.268Z,0.00
2018-11-10T00:01:34.840Z,0.00
2018-11-10T00:03:06.814Z,0.00
2018-11-10T00:04:37.983Z,0.00
2018-11-10T00:06:09.756Z,0.00
2018-11-10T00:07:41.137Z,0.00
2018-11-10T00:09:12.698Z,0.00
2018-11-10T00:10:44.275Z,0.00
2018-11-10T00:12:15.841Z,0.00
2018-11-10T00:13:47.412Z,0.00
2018-11-10T00:15:18.985Z,0.00
2018-11-10T00:18:22.126Z,0.00
2018-11-10T00:19:53.701Z,0.00
2018-11-10T00:21:25.470Z,0.00
2018-11-10T00:22:56.840Z,0.00
2018-11-10T00:24:28.411Z,0.00
2018-11-10T00:25:59.984Z,0.00
2018-11-10T00:27:31.555Z,0.00
2018-11-10T00:29:03.130Z,0.00
2018-11-10T00:30:34.698Z,0.00
2018-11-10T00:32:06.269Z,0.00
2018-11-10T00:33:38.344Z,0.00
2018-11-10T00:35:09.416Z,0.00
2018-11-10T00:36:40.984Z,0.00
2018-11-10T00:38:12.557Z,0.00
2018-11-10T00:39:44.227Z,0.00
2018-11-10T00:41:15.699Z,0.00
2018-11-10T00:42:47.269Z,0.00
2018-11-10T00:44:18.847Z,0.00
2018-11-10T00:45:50.413Z,0.00
2018-11-10T00:47:21.984Z,0.00
2018-11-10T00:50:25.126Z,0.00
2018-11-10T00:51:56.799Z,0.00
2018-11-10T00:53:28.271Z,0.00
2018-11-10T00:54:59.842Z,0.00
2018-11-10T00:56:31.413Z,0.00
2018-11-10T00:58:03.084Z,0.00
2018-11-10T00:59:34.556Z,0.00
2018-11-10T01:01:06.132Z,0.00
2018-11-10T01:02:37.700Z,0.00
2018-11-10T01:04:09.570Z,0.00
2018-11-10T01:05:41.371Z,0.00
2018-11-10T01:07:12.412Z,0.00
2018-11-10T01:08:43.989Z,0.00
2018-11-10T01:10:15.558Z,0.00
2018-11-10T01:11:47.127Z,0.00
2018-11-10T01:13:18.698Z,0.00
2018-11-10T01:14:50.472Z,0.00
2018-11-10T01:16:22.192Z,0.00
2018-11-10T01:17:53.411Z,0.00
2018-11-10T01:19:24.997Z,0.00
2018-11-10T01:20:56.553Z,0.00
2018-11-10T01:22:28.226Z,0.00
2018-11-10T01:23:59.699Z,0.00
2018-11-10T01:25:31.268Z,0.00
2018-11-10T01:27:02.841Z,0.00
2018-11-10T01:28:34.412Z,0.00
2018-11-10T01:30:05.984Z,0.00
2018-11-10T01:31:37.555Z,0.00
2018-11-10T01:33:09.126Z,0.00
2018-11-10T01:34:41.099Z,0.00
2018-11-10T01:36:12.269Z,0.00
2018-11-10T01:37:43.841Z,0.00
2018-11-10T01:39:15.412Z,0.00
2018-11-10T01:40:46.984Z,0.00
2018-11-10T01:42:18.555Z,0.00
2018-11-10T01:43:50.125Z,0.00
2018-11-10T01:45:21.697Z,0.00
2018-11-10T01:46:53.271Z,0.00
2018-11-10T01:48:24.840Z,0.00
2018-11-10T01:49:56.412Z,0.00
2018-11-10T01:51:27.985Z,0.00
2018-11-10T01:52:59.755Z,0.00
2018-11-10T01:54:31.127Z,0.00
2018-11-10T01:56:02.699Z,0.00
2018-11-10T01:57:34.270Z,0.00
2018-11-10T01:59:05.841Z,0.00
2018-11-10T02:00:37.415Z,0.00
2018-11-10T02:02:09.187Z,0.00
2018-11-10T02:03:40.762Z,0.00
2018-11-10T02:05:12.430Z,0.00
2018-11-10T02:06:43.769Z,0.00
2018-11-10T02:08:15.271Z,0.00
2018-11-10T02:09:46.842Z,0.00
2018-11-10T02:11:18.513Z,0.00
2018-11-10T02:12:49.989Z,0.00
2018-11-10T02:14:21.555Z,0.00
2018-11-10T02:15:53.127Z,0.00
2018-11-10T02:17:24.699Z,0.00
2018-11-10T02:18:56.271Z,0.00
2018-11-10T02:20:27.841Z,0.00
2018-11-10T02:21:59.417Z,0.00
2018-11-10T02:23:31.085Z,0.00
2018-11-10T02:25:02.562Z,0.00
2018-11-10T02:26:34.127Z,0.00
2018-11-10T02:28:05.698Z,0.00
2018-11-10T02:29:37.521Z,0.00
2018-11-10T02:31:08.861Z,0.00
2018-11-10T02:32:40.413Z,0.00
2018-11-10T02:34:11.984Z,0.00
2018-11-10T02:35:43.556Z,0.00
2018-11-10T02:37:15.317Z,0.00
2018-11-10T02:38:46.913Z,0.00
2018-11-10T02:40:18.271Z,0.00
2018-11-10T02:41:49.841Z,0.00
2018-11-10T02:43:21.414Z,0.00
2018-11-10T02:46:24.566Z,0.00
2018-11-10T02:47:56.228Z,0.00
2018-11-10T02:49:27.698Z,0.00
2018-11-10T02:50:59.270Z,0.00
2018-11-10T02:52:30.844Z,0.00
2018-11-10T02:54:02.531Z,0.00
2018-11-10T02:55:33.996Z,0.00
2018-11-10T02:57:05.555Z,0.00
2018-11-10T02:58:37.126Z,0.00
2018-11-10T03:00:08.797Z,0.00
2018-11-10T03:01:40.271Z,0.00
2018-11-10T03:03:12.167Z,0.00
2018-11-10T03:04:43.411Z,0.00
2018-11-10T03:06:15.383Z,0.00
2018-11-10T03:07:46.559Z,0.00
2018-11-10T03:09:18.130Z,0.00
2018-11-10T03:10:49.827Z,0.00
2018-11-10T03:12:21.273Z,0.00
2018-11-10T03:13:52.837Z,0.00
2018-11-10T03:15:24.410Z,0.00
2018-11-10T03:16:55.981Z,0.00
2018-11-10T03:18:27.553Z,0.00
2018-11-10T03:19:59.122Z,0.00
2018-11-10T03:21:30.693Z,0.00
2018-11-10T03:23:02.264Z,0.00
2018-11-10T03:24:34.038Z,0.00
2018-11-10T03:26:05.408Z,0.00
2018-11-10T03:27:36.978Z,0.00
2018-11-10T03:29:08.556Z,0.00
2018-11-10T03:30:40.121Z,0.00
2018-11-10T03:32:11.692Z,0.00
2018-11-10T03:33:43.263Z,0.00
2018-11-10T03:35:14.833Z,0.00
2018-11-10T03:36:46.406Z,0.00
2018-11-10T03:38:17.976Z,0.00
2018-11-10T03:39:49.547Z,0.00
2018-11-10T03:41:21.119Z,0.00
2018-11-10T03:42:52.790Z,0.00
2018-11-10T03:44:24.264Z,0.00
2018-11-10T03:45:55.831Z,0.00
2018-11-10T03:47:27.402Z,0.00
2018-11-10T03:48:59.077Z,0.00
2018-11-10T03:50:30.545Z,0.00
2018-11-10T03:52:02.116Z,0.00
2018-11-10T03:53:33.686Z,0.00
2018-11-10T03:55:05.258Z,0.00
2018-11-10T03:56:36.831Z,0.00
2018-11-10T03:58:08.399Z,0.00
2018-11-10T04:01:11.743Z,0.00
2018-11-10T04:02:43.116Z,0.00
2018-11-10T04:04:14.687Z,0.00
2018-11-10T04:07:18.126Z,0.00
2018-11-10T04:08:49.601Z,0.00
2018-11-10T04:10:20.968Z,0.00
2018-11-10T04:11:52.540Z,0.00
2018-11-10T04:13:24.112Z,0.00
2018-11-10T04:16:27.259Z,0.00
2018-11-10T04:17:58.824Z,0.00
2018-11-10T04:19:30.697Z,0.00
2018-11-10T04:21:01.967Z,0.00
2018-11-10T04:22:33.537Z,0.00
2018-11-10T04:24:05.110Z,0.00
2018-11-10T04:25:36.780Z,0.00
2018-11-10T04:27:08.253Z,0.00
2018-11-10T04:28:39.825Z,0.00
2018-11-10T04:30:11.397Z,0.00
2018-11-10T04:31:43.065Z,0.00
2018-11-10T04:33:14.536Z,0.00
2018-11-10T04:34:46.107Z,0.00
2018-11-10T04:36:17.678Z,0.00
2018-11-10T04:37:49.651Z,0.00
2018-11-10T04:39:20.821Z,0.00
2018-11-10T04:40:52.899Z,0.00
2018-11-10T04:42:23.963Z,0.00
2018-11-10T04:43:55.535Z,0.00
2018-11-10T04:45:27.106Z,0.00
2018-11-10T04:46:58.679Z,0.00
2018-11-10T04:48:30.249Z,0.00
2018-11-10T04:50:01.823Z,0.00
2018-11-10T04:51:33.390Z,0.00
2018-11-10T04:53:04.963Z,0.00
2018-11-10T04:54:36.533Z,0.00
2018-11-10T04:56:08.305Z,0.00
2018-11-10T04:57:39.980Z,0.00
2018-11-10T04:59:11.248Z,0.00
2018-11-10T05:00:42.817Z,0.00
2018-11-10T05:02:14.390Z,0.00
2018-11-10T05:03:45.959Z,0.00
2018-11-10T05:05:17.532Z,0.00
2018-11-10T05:06:49.103Z,0.00
2018-11-10T05:08:20.975Z,0.00
2018-11-10T05:09:52.253Z,0.00
2018-11-10T05:11:23.859Z,0.00
2018-11-10T05:14:27.060Z,0.00
2018-11-10T05:15:58.530Z,0.00
2018-11-10T05:17:30.100Z,0.00
2018-11-10T05:19:01.672Z,0.00
2018-11-10T05:20:33.245Z,0.00
2018-11-10T05:22:04.818Z,0.00
2018-11-10T05:23:36.386Z,0.00
2018-11-10T05:25:07.958Z,0.00
2018-11-10T05:26:39.630Z,0.00
2018-11-10T05:28:11.101Z,0.00
2018-11-10T05:29:42.873Z,0.00
2018-11-10T05:31:14.309Z,0.00
2018-11-10T05:32:45.915Z,0.00
2018-11-10T05:34:17.385Z,0.00
2018-11-10T05:35:48.957Z,0.00
2018-11-10T05:37:20.529Z,0.00
2018-11-10T05:38:52.401Z,0.00
2018-11-10T05:40:23.671Z,0.00
2018-11-10T05:41:55.241Z,0.00
2018-11-10T05:43:26.813Z,0.00
2018-11-10T05:44:58.384Z,0.00
2018-11-10T05:46:29.956Z,0.00
2018-11-10T05:48:01.526Z,0.00
2018-11-10T05:49:33.195Z,0.00
2018-11-10T05:51:04.773Z,0.00
2018-11-10T05:52:36.240Z,0.00
2018-11-10T05:54:07.811Z,0.00
2018-11-10T05:55:39.685Z,0.00
2018-11-10T05:57:11.067Z,0.00
2018-11-10T05:58:42.523Z,0.00
2018-11-10T06:00:14.094Z,0.00
2018-11-10T06:01:45.667Z,0.00
2018-11-10T06:03:17.256Z,0.00
2018-11-10T06:04:48.808Z,0.00
2018-11-10T06:06:20.380Z,0.00
2018-11-10T06:07:51.950Z,0.00
2018-11-10T06:09:23.663Z,0.00
2018-11-10T06:10:55.397Z,0.00
2018-11-10T06:12:26.663Z,0.00
2018-11-10T06:13:58.233Z,0.00
2018-11-10T06:15:29.805Z,0.00
2018-11-10T06:17:01.377Z,0.00
2018-11-10T06:18:32.970Z,0.00
2018-11-10T06:20:04.518Z,0.00
2018-11-10T06:21:36.088Z,0.00
2018-11-10T06:23:07.659Z,0.00
2018-11-10T06:24:39.233Z,0.00
2018-11-10T06:26:10.878Z,0.00
2018-11-10T06:27:42.573Z,0.00
2018-11-10T06:29:13.944Z,0.00
2018-11-10T06:30:45.514Z,0.00
2018-11-10T06:32:17.084Z,0.00
2018-11-10T06:33:48.655Z,0.00
2018-11-10T06:35:20.226Z,0.00
2018-11-10T06:38:23.367Z,0.00
2018-11-10T06:39:55.238Z,0.00
2018-11-10T06:41:26.564Z,0.00
2018-11-10T06:42:58.087Z,0.00
2018-11-10T06:44:29.654Z,0.00
2018-11-10T06:46:01.321Z,0.00
2018-11-10T06:47:32.793Z,0.00
2018-11-10T06:49:04.362Z,0.00
2018-11-10T06:50:35.932Z,0.00
2018-11-10T06:52:07.504Z,0.00
2018-11-10T06:53:39.379Z,0.00
2018-11-10T06:55:10.644Z,0.00
2018-11-10T06:56:42.217Z,0.00
2018-11-10T06:58:13.888Z,0.00
2018-11-10T06:59:45.357Z,0.00
2018-11-10T07:01:16.928Z,0.00
2018-11-10T07:02:48.498Z,0.00
2018-11-10T07:04:20.168Z,0.00
2018-11-10T07:05:51.661Z,0.00
2018-11-10T07:07:23.210Z,0.00
2018-11-10T07:10:26.653Z,0.00
2018-11-10T07:11:57.923Z,0.00
2018-11-10T07:13:29.493Z,0.00
2018-11-10T07:15:01.064Z,0.00
2018-11-10T07:16:32.634Z,0.00
2018-11-10T07:18:04.241Z,0.00
2018-11-10T07:19:35.780Z,0.00
2018-11-10T07:21:07.349Z,0.00
2018-11-10T07:22:39.020Z,0.00
2018-11-10T07:24:10.493Z,0.00
2018-11-10T07:25:42.366Z,0.00
2018-11-10T07:27:13.631Z,0.00
2018-11-10T07:28:45.302Z,0.00
2018-11-10T07:30:16.773Z,0.00
2018-11-10T07:31:48.347Z,0.00
2018-11-10T07:33:19.916Z,0.00
2018-11-10T07:34:51.485Z,0.00
2018-11-10T07:36:23.054Z,0.00
2018-11-10T07:37:54.626Z,0.00
2018-11-10T07:39:26.196Z,0.00
2018-11-10T07:40:57.869Z,0.00
2018-11-10T07:42:29.338Z,0.00
2018-11-10T07:44:00.910Z,0.00
2018-11-10T07:45:32.479Z,0.00
2018-11-10T07:47:04.051Z,0.00
2018-11-10T07:48:35.621Z,0.00
2018-11-10T07:50:07.197Z,4.00
2018-11-10T07:51:38.764Z,0.00
2018-11-10T07:53:10.333Z,4.00
2018-11-10T07:54:41.904Z,8.00
2018-11-10T07:56:13.475Z,8.00
2018-11-10T07:57:45.353Z,12.00
2018-11-10T07:59:16.820Z,20.00
2018-11-10T08:00:48.188Z,28.00
2018-11-10T08:02:19.758Z,36.00
2018-11-10T08:03:51.331Z,56.00
2018-11-10T08:05:22.900Z,76.00
2018-11-10T08:06:54.471Z,100.00
2018-11-10T08:08:26.041Z,132.00
2018-11-10T08:09:57.615Z,180.00
2018-11-10T08:11:29.484Z,232.00
2018-11-10T08:13:00.755Z,256.00
2018-11-10T08:14:32.325Z,284.00
2018-11-10T08:16:03.897Z,336.00
2018-11-10T08:17:36.019Z,380.00
2018-11-10T08:19:07.052Z,404.00
2018-11-10T08:20:38.611Z,448.00
2018-11-10T08:22:10.181Z,584.00
2018-11-10T08:23:41.752Z,700.00
2018-11-10T08:25:13.789Z,816.00
2018-11-10T08:26:44.899Z,904.00
2018-11-10T08:28:16.464Z,1072.00
2018-11-10T08:29:48.136Z,1444.00
2018-11-10T08:31:19.681Z,1460.00
2018-11-10T08:32:51.706Z,1536.00
2018-11-10T08:34:22.749Z,1652.00
2018-11-10T08:35:54.419Z,1668.00
2018-11-10T08:37:25.892Z,1444.00
2018-11-10T08:40:29.034Z,1668.00
2018-11-10T08:42:01.210Z,1436.00
2018-11-10T08:43:32.175Z,1568.00
2018-11-10T08:45:03.748Z,1720.00
2018-11-10T08:46:35.320Z,1900.00
2018-11-10T08:48:07.194Z,1944.00
2018-11-10T08:49:38.462Z,1984.00
2018-11-10T08:51:10.032Z,2372.00
2018-11-10T08:52:41.603Z,2588.00
2018-11-10T08:54:13.579Z,2672.00
2018-11-10T08:55:44.746Z,3260.00
2018-11-10T08:57:16.321Z,3308.00
2018-11-10T08:58:47.888Z,3604.00
2018-11-10T09:01:51.943Z,4652.00
2018-11-10T09:03:22.603Z,5200.00
2018-11-10T09:04:54.174Z,5760.00
2018-11-10T09:06:25.745Z,6088.00
2018-11-10T09:07:57.421Z,6592.00
2018-11-10T09:09:29.193Z,7448.00
2018-11-10T09:11:00.461Z,8128.00
2018-11-10T09:12:32.033Z,8812.00
2018-11-10T09:14:04.533Z,9348.00
2018-11-10T09:17:06.749Z,10192.00
2018-11-10T09:18:38.321Z,9924.00
2018-11-10T09:20:09.894Z,10232.00
2018-11-10T09:21:41.535Z,10368.00
2018-11-10T09:24:44.616Z,11204.00
2018-11-10T09:26:16.184Z,11548.00
2018-11-10T09:27:47.757Z,11124.00
2018-11-10T09:32:22.676Z,11140.00
2018-11-10T09:33:54.048Z,10876.00
2018-11-10T09:35:26.149Z,10416.00
2018-11-10T09:38:29.475Z,12052.00
2018-11-10T09:40:00.341Z,12692.00
2018-11-10T09:41:31.912Z,12232.00
2018-11-10T09:43:03.487Z,13664.00
2018-11-10T09:44:35.364Z,13828.00
2018-11-10T09:46:06.631Z,13680.00
2018-11-10T09:47:38.206Z,12828.00
2018-11-10T09:49:09.983Z,12752.00
2018-11-10T09:52:13.230Z,14196.00
2018-11-10T09:53:44.499Z,13284.00
2018-11-10T09:55:16.070Z,12028.00
2018-11-10T09:58:19.420Z,13020.00
2018-11-10T09:59:50.791Z,12464.00
2018-11-10T10:01:22.489Z,13112.00
2018-11-10T10:04:25.715Z,13880.00
2018-11-10T10:05:57.287Z,13228.00
2018-11-10T10:07:28.660Z,13044.00
2018-11-10T10:09:00.331Z,12204.00
2018-11-10T10:10:32.007Z,13332.00
2018-11-10T10:12:03.382Z,12808.00
2018-11-10T10:13:34.957Z,11988.00
2018-11-10T10:15:06.525Z,11400.00
2018-11-10T10:16:38.461Z,11432.00
2018-11-10T10:18:09.674Z,12156.00
2018-11-10T10:19:42.384Z,13484.00
2018-11-10T10:21:13.024Z,14828.00
2018-11-10T10:22:44.394Z,15728.00
2018-11-10T10:24:15.969Z,14700.00
2018-11-10T10:25:48.969Z,15492.00
2018-11-10T10:27:20.172Z,16624.00
2018-11-10T10:30:22.364Z,18112.00
2018-11-10T10:31:53.837Z,17240.00
2018-11-10T10:33:25.613Z,17016.00
2018-11-10T10:34:57.207Z,17028.00
2018-11-10T10:36:29.087Z,16816.00
2018-11-10T10:38:00.661Z,17280.00
2018-11-10T10:39:31.799Z,17476.00
2018-11-10T10:41:03.282Z,18240.00
2018-11-10T10:42:35.158Z,20256.00
2018-11-10T10:44:06.428Z,21696.00
2018-11-10T10:45:38.003Z,22784.00
2018-11-10T10:48:41.899Z,24736.00
2018-11-10T10:50:12.726Z,27616.00
2018-11-10T10:53:16.405Z,38656.00
2018-11-10T10:54:47.451Z,33536.00
2018-11-10T10:56:19.064Z,28512.00
2018-11-10T10:59:22.180Z,24512.00
2018-11-10T11:00:53.854Z,25088.00
2018-11-10T11:02:25.330Z,24800.00
2018-11-10T11:05:28.482Z,26848.00
2018-11-10T11:07:00.160Z,31296.00
2018-11-10T11:08:31.633Z,32736.00
2018-11-10T11:11:34.788Z,38400.00
2018-11-10T11:13:07.596Z,41472.00
2018-11-10T11:14:37.938Z,42752.00
2018-11-10T11:17:41.093Z,41152.00
2018-11-10T11:19:13.197Z,39552.00
2018-11-10T11:20:44.247Z,39744.00
2018-11-10T11:22:16.028Z,42432.00
2018-11-10T11:23:47.403Z,42400.00
2018-11-10T11:26:50.662Z,43360.00
2018-11-10T11:28:22.137Z,41216.00
2018-11-10T11:29:54.018Z,43360.00
2018-11-10T11:32:56.872Z,42656.00
2018-11-10T11:34:28.450Z,40128.00
2018-11-10T11:36:00.033Z,46688.00
2018-11-10T11:37:31.607Z,45120.00
2018-11-10T11:39:03.593Z,46272.00
2018-11-10T11:40:34.766Z,63648.00
2018-11-10T11:42:06.345Z,73216.00
2018-11-10T11:43:37.928Z,71648.00
2018-11-10T11:45:09.604Z,70592.00
2018-11-10T11:46:41.083Z,74528.00
2018-11-10T11:48:12.666Z,72608.00
2018-11-10T11:49:44.508Z,74432.00
2018-11-10T11:51:15.827Z,69248.00
2018-11-10T11:52:47.411Z,71328.00
2018-11-10T11:54:18.991Z,77632.00
2018-11-10T11:55:51.102Z,79040.00
2018-11-10T11:57:22.154Z,81920.00
2018-11-10T11:58:53.740Z,75264.00
2018-11-10T12:00:25.628Z,64608.00
2018-11-10T12:01:57.871Z,88736.00
2018-11-10T12:03:28.583Z,63776.00
2018-11-10T12:05:00.066Z,88096.00
2018-11-10T12:08:03.231Z,67904.00
2018-11-10T12:09:35.218Z,73056.00
2018-11-10T12:11:06.398Z,65120.00
2018-11-10T12:12:37.980Z,59040.00
2018-11-10T12:14:09.567Z,53056.00
2018-11-10T12:15:41.349Z,56128.00
2018-11-10T12:17:12.734Z,68768.00
2018-11-10T12:18:44.310Z,70336.00
2018-11-10T12:21:47.794Z,73760.00
2018-11-10T12:23:19.057Z,70048.00
2018-11-10T12:24:50.645Z,87328.00
2018-11-10T12:26:22.221Z,96288.00
2018-11-10T12:27:54.006Z,72480.00
2018-11-10T12:29:25.387Z,71904.00
2018-11-10T12:30:57.279Z,97088.00
2018-11-10T12:32:28.552Z,84256.00
2018-11-10T12:34:00.136Z,67680.00
2018-11-10T12:35:31.719Z,68928.00
2018-11-10T12:38:35.102Z,69056.00
2018-11-10T12:40:06.673Z,73888.00
2018-11-10T12:41:38.052Z,81952.00
2018-11-10T12:43:09.636Z,97792.00
2018-11-10T12:46:12.803Z,66816.00
2018-11-10T12:47:44.726Z,90400.00
2018-11-10T12:49:17.865Z,85856.00
2018-11-10T12:52:19.477Z,67552.00
2018-11-10T12:53:50.925Z,86336.00
2018-11-10T12:55:22.306Z,79168.00
2018-11-10T12:58:25.777Z,113984.00
2018-11-10T12:59:57.059Z,59488.00
2018-11-10T13:01:28.947Z,101120.00
2018-11-10T13:03:00.230Z,102688.00
2018-11-10T13:04:31.812Z,102592.00
2018-11-10T13:06:03.397Z,86560.00
2018-11-10T13:07:35.509Z,66752.00
2018-11-10T13:09:06.843Z,71616.00
2018-11-10T13:10:38.258Z,72640.00
2018-11-10T13:12:09.773Z,84672.00
2018-11-10T13:15:12.906Z,97856.00
2018-11-10T13:16:44.590Z,85920.00
2018-11-10T13:18:16.278Z,78688.00
2018-11-10T13:19:47.658Z,72128.00
2018-11-10T13:24:22.410Z,68864.00
2018-11-10T13:25:54.524Z,91712.00
2018-11-10T13:27:25.782Z,101280.00
2018-11-10T13:28:57.670Z,73856.00
2018-11-10T13:32:00.508Z,55008.00
2018-11-10T13:36:35.992Z,61824.00
2018-11-10T13:38:06.781Z,58016.00
2018-11-10T13:39:38.249Z,56512.00
2018-11-10T13:41:09.836Z,66016.00
2018-11-10T13:42:41.957Z,79072.00
2018-11-10T13:44:13.963Z,105280.00
2018-11-10T13:45:44.788Z,77728.00
2018-11-10T13:47:16.164Z,60928.00
2018-11-10T13:48:48.055Z,61408.00
2018-11-10T13:50:19.435Z,54592.00
2018-11-10T13:51:51.207Z,58112.00
2018-11-10T13:53:22.497Z,58208.00
2018-11-10T13:59:28.934Z,70720.00
2018-11-10T14:01:00.715Z,67776.00
2018-11-10T14:05:35.519Z,59616.00
2018-11-10T14:07:06.747Z,77632.00
2018-11-10T14:08:38.330Z,86144.00
2018-11-10T14:10:10.110Z,86592.00
2018-11-10T14:11:41.693Z,70848.00
2018-11-10T14:13:13.074Z,81024.00
2018-11-10T14:14:44.656Z,74304.00
2018-11-10T14:16:16.240Z,98048.00
2018-11-10T14:19:19.407Z,166592.00
2018-11-10T14:20:51.195Z,119552.00
2018-11-10T14:22:22.575Z,77568.00
2018-11-10T14:23:54.360Z,76768.00
2018-11-10T14:25:25.842Z,98240.00
2018-11-10T14:26:57.329Z,134112.00
2018-11-10T14:28:28.911Z,72448.00
2018-11-10T14:30:00.496Z,59200.00
2018-11-10T14:31:32.082Z,59968.00
2018-11-10T14:33:03.667Z,93184.00
2018-11-10T14:36:06.835Z,58656.00
2018-11-10T14:39:10.005Z,57248.00
2018-11-10T14:42:13.684Z,43840.00
2018-11-10T14:43:44.755Z,44320.00
2018-11-10T14:45:16.540Z,48032.00
2018-11-10T14:46:47.924Z,55808.00
2018-11-10T14:49:51.091Z,115328.00
2018-11-10T14:51:23.406Z,90624.00
2018-11-10T14:52:54.640Z,75264.00
2018-11-10T14:54:25.847Z,82400.00
2018-11-10T14:55:57.628Z,56992.00
2018-11-10T14:57:29.440Z,52896.00
2018-11-10T14:59:00.593Z,55712.00
2018-11-10T15:00:32.199Z,67872.00
2018-11-10T15:02:03.764Z,71968.00
2018-11-10T15:03:35.658Z,66176.00
2018-11-10T15:05:07.237Z,85408.00
2018-11-10T15:06:38.513Z,48160.00
2018-11-10T15:08:10.100Z,36736.00
2018-11-10T15:09:41.887Z,33760.00
2018-11-10T15:11:13.572Z,32000.00
2018-11-10T15:12:44.851Z,30624.00
2018-11-10T15:14:16.433Z,29152.00
2018-11-10T15:15:48.323Z,28128.00
2018-11-10T15:17:19.905Z,28384.00
2018-11-10T15:20:22.767Z,27424.00
2018-11-10T15:21:54.448Z,26560.00
2018-11-10T15:23:25.931Z,25472.00
2018-11-10T15:24:58.061Z,23840.00
2018-11-10T15:26:29.094Z,21440.00
2018-11-10T15:28:00.675Z,19488.00
2018-11-10T15:29:32.259Z,18432.00
2018-11-10T15:32:35.422Z,19040.00
2018-11-10T15:34:07.307Z,20288.00
2018-11-10T15:38:41.747Z,24576.00
2018-11-10T15:40:13.634Z,26464.00
2018-11-10T15:41:45.216Z,28192.00
2018-11-10T15:43:16.491Z,29824.00
2018-11-10T15:44:48.075Z,31904.00
2018-11-10T15:46:20.359Z,33888.00
2018-11-10T15:47:51.436Z,35136.00
2018-11-10T15:49:23.529Z,34816.00
2018-11-10T15:50:55.329Z,34048.00
2018-11-10T15:52:26.179Z,33792.00
2018-11-10T15:55:29.341Z,33888.00
2018-11-10T15:57:00.789Z,34688.00
2018-11-10T16:01:35.565Z,40192.00
2018-11-10T16:03:07.047Z,43424.00
2018-11-10T16:04:38.628Z,47136.00
2018-11-10T16:06:10.216Z,52576.00
2018-11-10T16:07:41.800Z,57088.00
2018-11-10T16:09:13.437Z,62912.00
2018-11-10T16:10:45.483Z,101248.00
2018-11-10T16:12:16.538Z,70016.00
2018-11-10T16:13:48.323Z,68640.00
2018-11-10T16:15:20.231Z,129760.00
2018-11-10T16:16:51.289Z,101472.00
2018-11-10T16:18:22.870Z,74176.00
2018-11-10T16:19:55.360Z,64992.00
2018-11-10T16:22:57.630Z,163392.00
2018-11-10T16:26:00.795Z,67744.00
2018-11-10T16:27:32.380Z,48576.00
2018-11-10T16:29:03.967Z,33728.00
2018-11-10T16:30:35.554Z,22624.00
2018-11-10T16:32:07.139Z,20832.00
2018-11-10T16:33:38.728Z,22944.00
2018-11-10T16:35:10.309Z,27168.00
2018-11-10T16:38:13.978Z,28608.00
2018-11-10T16:39:45.280Z,30624.00
2018-11-10T16:41:16.638Z,31872.00
2018-11-10T16:44:19.806Z,36288.00
2018-11-10T16:47:23.272Z,31808.00
2018-11-10T16:50:26.132Z,20928.00
2018-11-10T16:51:57.714Z,17080.00
2018-11-10T16:53:29.295Z,17232.00
2018-11-10T16:56:32.558Z,20224.00
2018-11-10T16:58:04.038Z,22016.00
2018-11-10T16:59:35.618Z,24064.00
2018-11-10T17:01:07.403Z,21248.00
2018-11-10T17:02:38.779Z,18784.00
2018-11-10T17:04:10.360Z,18400.00
2018-11-10T17:05:41.940Z,17348.00
2018-11-10T17:08:45.251Z,12628.00
2018-11-10T17:10:16.682Z,11696.00
2018-11-10T17:11:48.263Z,11212.00
2018-11-10T17:13:19.870Z,10980.00
2018-11-10T17:14:51.523Z,10980.00
2018-11-10T17:16:23.530Z,11468.00
2018-11-10T17:17:54.783Z,12220.00
2018-11-10T17:19:26.159Z,13448.00
2018-11-10T17:20:58.073Z,15100.00
2018-11-10T17:24:00.898Z,17688.00
2018-11-10T17:25:32.471Z,17524.00
2018-11-10T17:27:04.277Z,17684.00
2018-11-10T17:28:35.628Z,18464.00
2018-11-10T17:30:07.433Z,18528.00
2018-11-10T17:31:38.783Z,18272.00
2018-11-10T17:33:10.705Z,21024.00
2018-11-10T17:34:41.936Z,31360.00
2018-11-10T17:36:13.718Z,50624.00
2018-11-10T17:39:17.112Z,92032.00
2018-11-10T17:40:48.753Z,38080.00
2018-11-10T17:42:20.088Z,30080.00
2018-11-10T17:43:51.406Z,31616.00
2018-11-10T17:45:23.084Z,42304.00
2018-11-10T17:46:54.765Z,62560.00
2018-11-10T17:48:26.692Z,95328.00
2018-11-10T17:49:57.723Z,137472.00
2018-11-10T17:51:29.603Z,92576.00
2018-11-10T17:53:00.881Z,116928.00
2018-11-10T17:54:32.485Z,126976.00
2018-11-10T17:56:04.044Z,65024.00
2018-11-10T17:57:35.959Z,59424.00
2018-11-10T17:59:07.514Z,64608.00
2018-11-10T18:00:38.788Z,59072.00
2018-11-10T18:02:10.974Z,62208.00
2018-11-10T18:03:41.991Z,51776.00
2018-11-10T18:06:45.119Z,46240.00
2018-11-10T18:09:48.925Z,32640.00
2018-11-10T18:11:19.863Z,27840.00
2018-11-10T18:12:51.707Z,23488.00
2018-11-10T18:14:23.027Z,20992.00
2018-11-10T18:17:26.188Z,14984.00
2018-11-10T18:18:58.120Z,13244.00
2018-11-10T18:20:29.349Z,12544.00
2018-11-10T18:22:01.234Z,13048.00
2018-11-10T18:23:32.608Z,16472.00
2018-11-10T18:25:04.096Z,23072.00
2018-11-10T18:26:35.667Z,34176.00
2018-11-10T18:29:39.232Z,48800.00
2018-11-10T18:31:10.403Z,45472.00
2018-11-10T18:32:42.101Z,41152.00
2018-11-10T18:34:13.560Z,38784.00
2018-11-10T18:37:16.722Z,37504.00
2018-11-10T18:38:48.299Z,36064.00
2018-11-10T18:41:51.700Z,30496.00
2018-11-10T18:43:23.039Z,25856.00
2018-11-10T18:46:26.400Z,18368.00
2018-11-10T18:47:57.982Z,14552.00
2018-11-10T18:49:29.507Z,12052.00
2018-11-10T18:51:01.138Z,11636.00
2018-11-10T18:52:32.514Z,10856.00
2018-11-10T18:54:04.094Z,9444.00
2018-11-10T18:58:38.829Z,9760.00
2018-11-10T19:00:10.407Z,8728.00
2018-11-10T19:01:42.513Z,8328.00
2018-11-10T19:03:13.868Z,8280.00
2018-11-10T19:04:45.443Z,11580.00
2018-11-10T19:06:16.768Z,12872.00
2018-11-10T19:07:48.599Z,11272.00
2018-11-10T19:09:19.874Z,8260.00
2018-11-10T19:12:24.440Z,6924.00
2018-11-10T19:13:54.601Z,6788.00
2018-11-10T19:15:26.179Z,6120.00
2018-11-10T19:16:57.858Z,4756.00
2018-11-10T19:18:29.332Z,3424.00
2018-11-10T19:20:00.908Z,2208.00
2018-11-10T19:21:32.484Z,1700.00
2018-11-10T19:23:04.390Z,1640.00
2018-11-10T19:24:35.634Z,1664.00
2018-11-10T19:26:07.738Z,1760.00
2018-11-10T19:27:38.786Z,1884.00
2018-11-10T19:29:10.462Z,2076.00
2018-11-10T19:30:41.943Z,2468.00
2018-11-10T19:32:13.587Z,3172.00
2018-11-10T19:33:45.086Z,3884.00
2018-11-10T19:35:16.661Z,4804.00
2018-11-10T19:36:48.237Z,5852.00
2018-11-10T19:39:51.385Z,8628.00
2018-11-10T19:41:23.587Z,10420.00
2018-11-10T19:42:54.536Z,12740.00
2018-11-10T19:45:57.684Z,18336.00
2018-11-10T19:47:29.259Z,18240.00
2018-11-10T19:49:00.833Z,18304.00
2018-11-10T19:50:32.485Z,16068.00
2018-11-10T19:52:04.122Z,15148.00
2018-11-10T19:53:35.577Z,14708.00
2018-11-10T19:55:07.234Z,13716.00
2018-11-10T19:56:39.016Z,14452.00
2018-11-10T19:58:10.392Z,14332.00
2018-11-10T19:59:42.065Z,13096.00
2018-11-10T20:01:13.440Z,11988.00
2018-11-10T20:02:45.319Z,10932.00
2018-11-10T20:04:16.589Z,9384.00
2018-11-10T20:10:22.893Z,9360.00
2018-11-10T20:11:55.402Z,7984.00
2018-11-10T20:16:29.297Z,4900.00
2018-11-10T20:18:00.777Z,4220.00
2018-11-10T20:19:32.375Z,4012.00
2018-11-10T20:21:03.925Z,4188.00
2018-11-10T20:22:35.504Z,4400.00
2018-11-10T20:24:07.075Z,4508.00
2018-11-10T20:25:38.650Z,4500.00
2018-11-10T20:28:41.800Z,4192.00
2018-11-10T20:30:13.374Z,4024.00
2018-11-10T20:31:45.477Z,4008.00
2018-11-10T20:33:16.524Z,4144.00
2018-11-10T20:34:48.298Z,4376.00
2018-11-10T20:36:19.673Z,4524.00
2018-11-10T20:39:22.820Z,4396.00
2018-11-10T20:40:54.399Z,4128.00
2018-11-10T20:42:25.968Z,3788.00
2018-11-10T20:43:57.543Z,3420.00
2018-11-10T20:45:29.117Z,3128.00
2018-11-10T20:47:00.691Z,2916.00
2018-11-10T20:48:32.267Z,2748.00
2018-11-10T20:50:03.838Z,2588.00
2018-11-10T20:51:35.718Z,2456.00
2018-11-10T20:53:07.086Z,2364.00
2018-11-10T20:54:38.560Z,2256.00
2018-11-10T20:56:10.136Z,2164.00
2018-11-10T20:57:41.708Z,2080.00
2018-11-10T20:59:13.585Z,1964.00
2018-11-10T21:00:44.939Z,1892.00
2018-11-10T21:02:16.428Z,1936.00
2018-11-10T21:05:19.676Z,1732.00
2018-11-10T21:06:51.159Z,1412.00